BIKF/KEF METAR and TAF weather

Enter ICAO airport designator
Station Type Date Time Source
BIKF METAR 2019/08/25 18:00 UTC NOAA

BIKF 251800Z 12034G44KT 5000 RA BKN013 OVC017 11/10 Q0985


Station Type Date Time Source
BIKF Decoded METAR 2019/08/25 18:00 UTC NOAA

Station name not available
Aug 25, 2019 - 02:00 PM EDT / 2019.08.25 1800 UTC
Wind: from the ESE (120 degrees) at 39 MPH (34 KT) gusting to 51 MPH (44 KT):0
Visibility: 3 mile(s):0
Sky conditions: overcast
Weather: rain
Temperature: 51 F (11 C)
Dew Point: 50 F (10 C)
Relative Humidity: 93%
Pressure (altimeter): 29.09 in. Hg (0985 hPa)
ob: BIKF 251800Z 12034G44KT 5000 RA BKN013 OVC017 11/10 Q0985
cycle: 18

Station Type Date Time Source
BIKF TAF 2019/08/25 18:33 UTC NOAA

TAF BIKF 251628Z 2518/2618 12025G40KT 5000 -RADZ OVC010 TX12/2518Z TN08/2606Z
BECMG 2518/2520 14018G28KT
TEMPO 2518/2522 1500 +RADZ BR OVC003
BECMG 2522/2601 9999 -RA BKN015 OVC025
TEMPO 2522/2610 5000 RADZ OVC010
BECMG 2606/2609 12010KT
BECMG 2610/2612 22015KT

Example: see airport list